首页
METAR-TAF:

METAR-TAF

机场 :

Hawkins Field

杰克逊, 密西西比州, 美国

纬度: 32-20-05N, 经度: 090-13-21W, 海拔: 104米

当前天气观测

该预报发布于50分钟前的13:53 UTC
风速5节,风向
温度 9°C
湿度 87%
气压 1012 hPa
能見度: 4.8公里
阴天层高于6500英尺

METAR: KHKS 291353Z 09005KT 3SM RA OVC065 09/07 A2989 RMK AO2 SLP117 P0003 T00940067

时间: 08:43 (14:43 UTC)

预报

该预报发布于2小时和57分钟前的11:46 UTC
预报有效从29日的 12点(UTC)到 30日的 12点(UTC)
风速6节,风向
能見度: 10公里
多云层高于9000英尺
从 29日的 1500点(UTC)
风速10节,风向东转东北
能見度: 8.0公里
阴天层高于1500英尺
从 29日的 1800点(UTC)
风速9节,风向东转东北
能見度: 10公里
阴天层高于900英尺
附近有阵雨
从 29日的 2000点(UTC)
风速8节,风向东转东北
能見度: 10公里
多云层高于1000英尺
从 30日的 0900点(UTC)
风速2节,风向
能見度: 9.7公里
阴天层高于700英尺
轻雾

TAF: KHKS 291146Z 2912/3012 08006KT P6SM BKN090 FM291500 06010KT 5SM RA OVC015 FM291800 06009KT P6SM VCSH OVC009 FM292000 06008KT P6SM BKN010 FM300900 01002KT 6SM BR OVC007

超过4000个机场的气象观测和天气预报(METAR&TAF报告)。

可查询的气象台以黄色和红色小点在地图上表示。

将鼠标移到小点上方,可查看气象台名称。

然后点击查看天气观测和预报。

如需切换地图:点击带黑十字的绿色按钮放大地图;点击带横线的绿色按钮缩小地图;或者点击绿色箭头查看邻近地区的地图。


METAR-TAF: